Upernavik

KL  EN  DA
ASIAQ
Weather Now GREENLAND SURVEY
Updated [WGT/WGST] Temperature [°C] Wind [m/s] Air pressure [hPa] Relative humidity [%] Precipitation [mm]
Present Wind chill Speed Max
27.09 02:00-2,9-8,24,6 ⇖5,41008840,0
27.09 01:00-2,8-7,53,8 ⇖4,41008820,0
27.09 00:00-2,8-8,65,3 ⇖6,41008800,0
26.09 23:00-2,6-7,94,7 ⇖5,91008790,0
26.09 22:00-2,5-7,23,9 ⇖5,51008790,0
26.09 21:00-2,3-6,33,0 ⇖4,41008790,0
26.09 20:00-2,3-5,62,4 ⇖2,81007780,0
26.09 19:00-2,3-6,43,2 ⇖4,31007770,0
26.09 18:00-2,3-6,73,5 ⇖4,51007770,0
26.09 17:00-2,2-5,12,1 ⇑4,11007760,0
26.09 16:00-2,4-7,24,0 ⇖4,71006770,0
26.09 15:00-2,8-8,14,6 ⇐6,41006790,0
26.09 14:00-2,4-5,11,9 ⇖2,81006730,0
26.09 13:00-2,7-7,84,3 ⇖5,31006780,0
26.09 12:00-3,1-8,44,4 ⇖5,41006780,0
26.09 11:00-2,3-6,22,9 ⇖3,81006710,0
26.09 10:00-2,9-7,33,3 ⇐4,31006750,0
26.09 09:00-3,9-7,82,7 ⇐3,21006740,0
26.09 08:00-4,30,0n/an/an/a690,0
26.09 07:00-4,7-8,62,5 ⇐3,11006740,0
26.09 06:00-4,6-8,42,5 ⇖3,11006670,0
26.09 05:00-4,7-8,62,5 ⇖3,41006680,0
26.09 04:00-4,6-8,22,3 ⇐3,01006710,0
26.09 03:00-4,4-7,21,8 ⇙3,11006710,0
26.09 02:00-4,6-8,12,2 ⇙2,91006760,0
Position: (72.783333333,-56.133333333)

[Back]